Phoenix, Arizona
Traffic Map
Current Weather Conditions
Phoenix, Arizona
Clear
Clear
26°
Feels Like: 26°
Wind Chill: 26° Ceiling: Unl
Heat Index: 26° Visibility: 10mi
Dew Point: 12° Wind: 5mph
Humidity: 42% Direction: 110° (ESE)
Pressure: 29.98in Gusts: 0mph
Raw Report DataKPHX 250551Z 11004KT 10SM CLR 26/12 A2998 RMK AO2 SLP134 T02560117 10350 20256 51009
Traffic Incident Summary
Active as of:
Severity:
Category:
InformationThere was an issue retrieving the traffic information for this location. Please try a different location or try again shortly.
Advertisements
Track Severe Weather on mobile